Time;durP1;ratioP1;P1;durP2;ratioP2;P2;SDS_P1;SDS_P2;PMS_P1;PMS_P2;Temp;Humidity;BMP_temperature;BMP_pressure;BME280_temperature;BME280_humidity;BME280_pressure;Samples;Min_cycle;Max_cycle;Signal;HPM_P1;HPM_P2
2022/06/19 00:02:44;;;;;;;12.05;7.47;;;;;;;23.51;63.18;99103.25;5034058;28;20444;-58
2022/06/19 00:05:31;;;;;;;12.75;7.53;;;;;;;23.50;63.12;99093.63;5019309;28;20044;-57
2022/06/19 00:08:15;;;;;;;10.60;7.25;;;;;;;23.45;63.32;99082.41;5019211;28;20413;-57
2022/06/19 00:11:00;;;;;;;12.27;7.90;;;;;;;23.45;63.15;99072.72;5033905;28;20087;-58
2022/06/19 00:13:45;;;;;;;9.05;6.93;;;;;;;23.42;63.21;99065.81;5019317;28;20056;-57
2022/06/19 00:16:29;;;;;;;13.38;7.00;;;;;;;23.42;63.41;99065.81;5034223;28;20045;-57
2022/06/19 00:19:14;;;;;;;13.70;6.93;;;;;;;23.42;63.28;99064.94;5033890;28;20136;-57
2022/06/19 00:21:58;;;;;;;7.88;7.05;;;;;;;23.40;63.16;99058.88;5033697;28;20048;-56
2022/06/19 00:24:41;;;;;;;10.80;6.32;;;;;;;23.39;63.24;99046.59;5033448;28;20456;-57
2022/06/19 00:27:26;;;;;;;9.30;6.82;;;;;;;23.39;63.36;99036.00;5033318;28;20044;-56
2022/06/19 00:30:12;;;;;;;13.88;7.90;;;;;;;23.38;63.16;99029.03;5033948;28;20052;-57
2022/06/19 00:32:55;;;;;;;11.02;6.47;;;;;;;23.36;63.30;99034.41;5018954;28;20041;-56
2022/06/19 00:35:40;;;;;;;12.32;7.18;;;;;;;23.35;63.37;99031.84;5033632;28;20488;-56
2022/06/19 00:38:27;;;;;;;11.27;7.60;;;;;;;23.34;63.24;99030.97;5033534;28;20044;-57
2022/06/19 00:41:11;;;;;;;8.13;6.20;;;;;;;23.32;63.51;99019.63;5018763;28;20051;-57
2022/06/19 00:43:56;;;;;;;;;;;;;;;23.30;63.31;99025.94;5033737;28;20121;-57
2022/06/19 00:46:44;;;;;;;9.15;6.80;;;;;;;23.29;63.34;99022.44;5032921;28;20342;-55
2022/06/19 00:49:39;;;;;;;11.43;6.68;;;;;;;23.28;63.60;99026.00;5033704;28;20527;-56
2022/06/19 00:52:33;;;;;;;9.88;6.60;;;;;;;23.27;63.23;99030.44;5018293;28;20052;-56
2022/06/19 00:55:21;;;;;;;13.10;7.03;;;;;;;23.29;63.35;99032.16;5019308;28;20111;-56
2022/06/19 00:58:24;;;;;;;9.75;6.63;;;;;;;23.29;63.33;99018.94;5033943;28;20080;-57
2022/06/19 01:01:18;;;;;;;8.63;6.50;;;;;;;23.26;63.23;99015.53;5033013;28;20049;-58
2022/06/19 01:04:26;;;;;;;12.07;6.57;;;;;;;23.26;63.41;99010.25;5033454;28;20049;-56
2022/06/19 01:07:10;;;;;;;10.55;6.72;;;;;;;23.26;63.30;99009.41;5033433;28;20051;-55
2022/06/19 01:09:54;;;;;;;12.73;6.22;;;;;;;23.23;63.66;99002.47;5018229;28;20051;-55
2022/06/19 01:12:41;;;;;;;9.27;6.45;;;;;;;23.21;63.37;98988.47;5033285;28;20052;-56
2022/06/19 01:15:26;;;;;;;9.52;6.00;;;;;;;23.21;63.66;98987.63;5018601;28;20100;-56
2022/06/19 01:18:11;;;;;;;10.32;6.63;;;;;;;23.22;63.33;98982.25;5018604;28;20554;-56
2022/06/19 01:21:06;;;;;;;10.38;6.65;;;;;;;23.22;63.75;98976.97;5033335;28;20623;-56
2022/06/19 01:24:14;;;;;;;15.73;6.13;;;;;;;23.21;63.29;98977.06;5018321;28;20182;-56
2022/06/19 01:27:01;;;;;;;12.88;7.07;;;;;;;23.20;63.64;98993.81;5018593;28;20452;-56
2022/06/19 01:29:45;;;;;;;12.95;6.95;;;;;;;23.20;63.38;99015.84;5033495;28;20563;-55
2022/06/19 01:32:35;;;;;;;8.73;5.88;;;;;;;23.21;63.70;99032.56;5032695;28;20531;-57
2022/06/19 01:35:23;;;;;;;11.70;6.28;;;;;;;23.20;63.73;99031.69;5018517;28;20142;-56
2022/06/19 01:38:13;;;;;;;13.00;5.90;;;;;;;23.18;63.46;99011.53;5021571;28;20060;-56
2022/06/19 01:41:07;;;;;;;9.40;6.07;;;;;;;23.17;63.74;99015.13;5037110;28;20054;-57
2022/06/19 01:43:51;;;;;;;;;;;;;;;23.12;63.42;99018.84;5022378;28;20091;-57
2022/06/19 01:46:35;;;;;;;10.43;5.30;;;;;;;23.11;63.91;99019.81;5036778;28;19940;-56
2022/06/19 01:49:20;;;;;;;10.00;5.65;;;;;;;23.10;63.49;99049.81;5037072;28;20076;-56
2022/06/19 01:52:05;;;;;;;6.32;5.00;;;;;;;23.10;63.66;99083.28;5036913;28;20075;-57
2022/06/19 01:54:55;;;;;;;8.00;5.55;;;;;;;23.07;63.70;99123.06;5021941;28;20052;-57
2022/06/19 01:57:44;;;;;;;8.35;4.90;;;;;;;23.04;64.02;99145.22;5021221;28;20041;-56
2022/06/19 02:00:31;;;;;;;8.30;5.30;;;;;;;23.07;63.65;99104.59;5021796;28;20095;-56
2022/06/19 02:03:28;;;;;;;8.48;5.22;;;;;;;23.06;63.70;99060.59;5021233;28;20057;-55
2022/06/19 02:06:16;;;;;;;4.50;3.63;;;;;;;23.05;63.50;99099.38;5021772;28;20068;-57
2022/06/19 02:09:02;;;;;;;8.70;4.97;;;;;;;23.02;63.55;99147.09;5021681;28;20044;-55
2022/06/19 02:11:49;;;;;;;5.47;4.22;;;;;;;23.01;63.56;99118.97;5036155;28;20061;-57
2022/06/19 02:14:34;;;;;;;6.60;4.10;;;;;;;22.97;63.65;99122.69;5021588;28;20060;-55
2022/06/19 02:17:42;;;;;;;8.02;3.53;;;;;;;22.91;63.39;99186.41;5021337;28;20049;-57
2022/06/19 02:20:26;;;;;;;7.07;3.50;;;;;;;22.89;63.49;99162.69;5021464;28;20056;-56
2022/06/19 02:23:11;;;;;;;8.15;4.10;;;;;;;22.86;63.26;99141.72;5036411;28;20412;-57
2022/06/19 02:25:56;;;;;;;8.48;3.70;;;;;;;22.81;63.36;99181.53;5021347;28;20080;-56
2022/06/19 02:28:44;;;;;;;9.23;3.67;;;;;;;22.77;63.20;99179.13;5021023;28;20048;-57
2022/06/19 02:31:28;;;;;;;5.13;2.97;;;;;;;22.77;63.30;99189.69;5021289;28;20123;-57
2022/06/19 02:34:29;;;;;;;7.43;3.90;;;;;;;22.73;63.25;99210.13;5035965;28;20049;-56
2022/06/19 02:37:25;;;;;;;6.20;2.97;;;;;;;22.72;63.32;99213.69;5021103;28;20056;-56
2022/06/19 02:40:34;;;;;;;5.00;2.53;;;;;;;22.69;63.27;99178.66;5020679;28;20048;-56
2022/06/19 02:43:26;;;;;;;11.52;3.30;;;;;;;22.62;62.86;99200.06;5035522;28;20049;-56
2022/06/19 02:46:10;;;;;;;8.52;3.15;;;;;;;22.61;63.23;99194.88;5035653;28;20607;-56
2022/06/19 02:48:54;;;;;;;6.43;2.75;;;;;;;22.58;63.00;99227.53;5035088;28;20153;-57
2022/06/19 02:51:38;;;;;;;8.85;2.58;;;;;;;22.56;62.91;99258.47;5035276;28;20041;-57
2022/06/19 02:54:25;;;;;;;7.47;3.03;;;;;;;22.54;62.91;99244.47;5035864;28;20088;-57
2022/06/19 02:57:11;;;;;;;3.85;2.53;;;;;;;22.49;62.56;99276.38;5020916;28;20049;-57
2022/06/19 02:59:55;;;;;;;9.00;2.75;;;;;;;22.44;62.67;99225.56;5020757;28;20052;-56
2022/06/19 03:02:43;;;;;;;9.13;2.80;;;;;;;22.46;62.68;99257.16;5035149;28;20100;-55
2022/06/19 03:05:29;;;;;;;8.65;2.53;;;;;;;22.43;62.45;99237.03;5020191;28;20049;-56
2022/06/19 03:08:13;;;;;;;5.28;2.53;;;;;;;22.38;62.53;99252.19;5020729;28;20067;-56
2022/06/19 03:10:58;;;;;;;6.07;2.78;;;;;;;22.37;62.37;99287.44;5035527;28;20519;-56
2022/06/19 03:13:43;;;;;;;7.20;2.80;;;;;;;22.34;62.48;99287.59;5035399;28;20048;-56
2022/06/19 03:16:27;;;;;;;10.82;2.53;;;;;;;22.32;62.31;99300.00;5035075;28;20102;-56
2022/06/19 03:19:12;;;;;;;9.05;2.15;;;;;;;22.27;62.08;99307.25;5019977;28;20079;-56
2022/06/19 03:21:55;;;;;;;6.13;2.53;;;;;;;22.22;62.19;99304.81;5035246;28;20076;-55
2022/06/19 03:24:40;;;;;;;10.75;2.75;;;;;;;22.13;62.03;99295.53;5019887;28;20603;-55
2022/06/19 03:27:24;;;;;;;8.70;3.33;;;;;;;22.10;61.65;99327.31;5020351;28;20129;-57
2022/06/19 03:30:10;;;;;;;7.30;2.97;;;;;;;22.08;61.79;99297.50;5020047;28;20103;-56
2022/06/19 03:32:57;;;;;;;10.60;2.92;;;;;;;22.05;61.76;99302.91;5020048;28;20411;-56
2022/06/19 03:35:41;;;;;;;6.35;2.42;;;;;;;22.03;61.73;99273.13;5035074;28;20087;-55
2022/06/19 03:38:25;;;;;;;8.00;2.83;;;;;;;22.01;61.68;99291.63;5035094;28;20451;-56
2022/06/19 03:41:09;;;;;;;8.73;2.38;;;;;;;22.00;61.66;99291.72;5034637;28;20052;-56
2022/06/19 03:43:53;;;;;;;9.10;3.05;;;;;;;21.98;61.52;99277.72;5034761;28;20587;-56
2022/06/19 03:46:37;;;;;;;6.13;2.88;;;;;;;21.98;61.32;99293.53;5034132;28;20527;-55
2022/06/19 03:49:23;;;;;;;8.80;3.13;;;;;;;21.94;61.31;99306.03;5020125;28;20518;-55
2022/06/19 03:52:08;;;;;;;8.30;2.35;;;;;;;21.93;61.32;99299.03;5019868;28;20152;-56
2022/06/19 03:54:54;;;;;;;6.78;2.55;;;;;;;21.90;61.27;99289.44;5034713;28;20048;-57
2022/06/19 03:57:41;;;;;;;8.20;2.40;;;;;;;21.90;61.05;99293.88;5019240;28;20183;-57
2022/06/19 04:00:26;;;;;;;10.90;2.55;;;;;;;21.88;61.09;99278.09;5018503;28;20099;-56
2022/06/19 04:03:09;;;;;;;6.60;2.75;;;;;;;21.86;61.09;99274.69;5033829;28;20144;-57
2022/06/19 04:05:54;;;;;;;8.20;2.97;;;;;;;21.81;60.98;99279.31;5034203;28;20575;-56
2022/06/19 04:08:46;;;;;;;8.15;2.83;;;;;;;21.80;60.83;99277.59;5034216;28;20084;-56
2022/06/19 04:11:31;;;;;;;8.30;2.65;;;;;;;21.77;60.82;99326.97;5019476;28;20053;-56
2022/06/19 04:14:17;;;;;;;8.18;2.80;;;;;;;21.75;60.82;99372.72;5019350;28;20060;-56
2022/06/19 04:17:03;;;;;;;7.53;2.90;;;;;;;21.73;60.67;99358.72;5019555;28;20412;-55
2022/06/19 04:19:48;;;;;;;8.88;2.70;;;;;;;21.75;60.73;99321.75;5019357;28;20096;-57
2022/06/19 04:22:34;;;;;;;10.45;2.65;;;;;;;21.75;60.59;99314.72;5019653;28;20440;-57
2022/06/19 04:25:18;;;;;;;9.27;2.42;;;;;;;21.73;60.60;99307.75;5018792;28;20052;-57
2022/06/19 04:28:03;;;;;;;8.27;2.50;;;;;;;21.74;60.72;99320.03;5034183;28;20048;-57
2022/06/19 04:30:50;;;;;;;10.02;2.78;;;;;;;21.73;60.54;99318.31;5033706;28;20100;-56
2022/06/19 04:33:38;;;;;;;9.57;2.33;;;;;;;21.72;60.65;99285.81;5034155;28;20059;-57
2022/06/19 04:36:24;;;;;;;8.50;2.80;;;;;;;21.71;60.35;99273.56;5018873;28;20131;-56
2022/06/19 04:39:10;;;;;;;6.97;2.47;;;;;;;21.70;60.36;99286.81;5019143;28;20056;-57
2022/06/19 04:41:54;;;;;;;7.13;2.25;;;;;;;21.67;60.30;99279.03;5018392;28;20067;-56
2022/06/19 04:44:38;;;;;;;9.85;3.30;;;;;;;21.65;60.11;99276.44;5033376;28;20139;-55
2022/06/19 04:47:22;;;;;;;11.48;3.08;;;;;;;21.63;60.30;99280.94;5034121;28;20040;-55
2022/06/19 04:50:06;;;;;;;10.68;3.03;;;;;;;21.62;60.19;99265.19;5033598;28;20059;-55
2022/06/19 04:52:52;;;;;;;12.15;2.80;;;;;;;21.57;60.00;99278.53;5018727;28;20051;-56
2022/06/19 04:55:36;;;;;;;10.85;2.78;;;;;;;21.51;60.08;99249.78;5033215;28;20060;-57
2022/06/19 04:58:23;;;;;;;12.93;3.08;;;;;;;21.47;59.88;99229.75;5032988;28;20048;-56
2022/06/19 05:01:28;;;;;;;9.40;2.92;;;;;;;21.43;59.58;99234.28;5018650;28;20627;-56
2022/06/19 05:04:13;;;;;;;10.85;3.03;;;;;;;21.40;59.83;99247.59;5013733;28;20045;-55
2022/06/19 05:06:56;;;;;;;6.32;2.63;;;;;;;21.39;59.77;99246.72;5013014;28;20088;-57
2022/06/19 05:09:40;;;;;;;7.65;2.60;;;;;;;21.39;59.66;99274.88;5013479;28;20544;-57
2022/06/19 05:12:25;;;;;;;11.48;2.35;;;;;;;21.39;59.75;99266.97;5015942;28;20531;-56
2022/06/19 05:15:10;;;;;;;8.38;2.40;;;;;;;21.38;59.61;99258.19;5017177;28;20052;-56
2022/06/19 05:17:54;;;;;;;9.73;2.92;;;;;;;21.39;59.50;99266.97;5017165;28;20061;-55
2022/06/19 05:20:38;;;;;;;10.95;2.50;;;;;;;21.39;59.62;99253.81;5017814;28;20053;-56
2022/06/19 05:23:23;;;;;;;8.70;2.58;;;;;;;21.39;59.35;99237.97;5017336;28;20119;-55
2022/06/19 05:26:11;;;;;;;10.82;2.60;;;;;;;21.35;59.21;99233.75;5017479;28;20104;-57
2022/06/19 05:28:56;;;;;;;5.95;2.42;;;;;;;21.35;59.36;99260.09;5016706;28;20413;-57
2022/06/19 05:31:40;;;;;;;8.80;3.10;;;;;;;21.30;59.26;99269.06;5016563;28;20092;-55
2022/06/19 05:34:24;;;;;;;7.32;2.85;;;;;;;21.30;59.05;99265.56;5017027;28;20049;-55
2022/06/19 05:37:08;;;;;;;12.85;2.92;;;;;;;21.29;59.12;99256.78;5017450;28;20139;-56
2022/06/19 05:39:52;;;;;;;9.98;2.83;;;;;;;21.33;59.12;99254.03;5017112;28;20053;-55
2022/06/19 05:42:36;;;;;;;7.90;2.55;;;;;;;21.33;59.31;99218.03;5017168;28;20592;-56
2022/06/19 05:45:20;;;;;;;8.73;2.15;;;;;;;21.35;59.08;99184.53;5015666;28;20049;-56
2022/06/19 05:48:04;;;;;;;10.43;2.13;;;;;;;21.36;59.10;99180.13;5015750;28;20053;-57
2022/06/19 05:51:07;;;;;;;7.53;3.50;;;;;;;21.35;58.78;99171.34;5016877;28;20045;-57
2022/06/19 05:53:56;;;;;;;11.52;2.97;;;;;;;21.34;58.87;99198.63;5016166;28;20065;-56
2022/06/19 05:56:40;;;;;;;12.65;2.88;;;;;;;21.35;59.04;99212.69;5016167;28;20520;-56
2022/06/19 05:59:23;;;;;;;8.52;2.83;;;;;;;21.36;58.69;99209.97;5016706;28;20541;-56
2022/06/19 06:02:09;;;;;;;7.47;2.53;;;;;;;21.36;58.78;99203.84;5024779;28;20110;-55
2022/06/19 06:04:53;;;;;;;7.25;2.85;;;;;;;21.35;58.82;99231.97;5021475;28;20045;-56
2022/06/19 06:07:36;;;;;;;6.07;2.08;;;;;;;21.36;58.81;99243.38;5036322;28;20112;-55
2022/06/19 06:10:21;;;;;;;8.32;2.55;;;;;;;21.36;58.69;99214.38;5036186;28;20179;-55
2022/06/19 06:13:06;;;;;;;8.93;2.55;;;;;;;21.36;58.69;99240.75;5036126;28;20095;-57
2022/06/19 06:15:50;;;;;;;10.95;3.25;;;;;;;21.35;58.51;99284.66;5021408;28;20057;-56
2022/06/19 06:18:34;;;;;;;14.30;3.72;;;;;;;21.37;58.56;99454.13;5021294;28;20409;-56
2022/06/19 06:21:24;;;;;;;10.85;2.75;;;;;;;21.30;58.22;99568.63;5035764;28;20084;-55
2022/06/19 06:24:08;;;;;;;9.30;2.72;;;;;;;21.30;58.14;99503.56;5020280;28;20044;-55
2022/06/19 06:26:52;;;;;;;11.00;3.63;;;;;;;21.30;58.19;99508.00;5020927;28;20116;-56
2022/06/19 06:29:36;;;;;;;11.20;3.08;;;;;;;21.25;58.04;99520.47;5036060;28;20048;-56
2022/06/19 06:32:19;;;;;;;13.15;3.80;;;;;;;21.22;58.35;99542.53;5036036;28;20053;-55
2022/06/19 06:35:04;;;;;;;8.68;2.67;;;;;;;21.19;58.34;99554.94;5035901;28;20571;-56
2022/06/19 06:37:48;;;;;;;8.77;3.45;;;;;;;21.18;58.04;99516.38;5021208;28;20224;-56
2022/06/19 06:40:32;;;;;;;14.57;3.30;;;;;;;21.17;58.06;99520.75;5035990;28;20052;-55
2022/06/19 06:43:17;;;;;;;10.88;3.53;;;;;;;21.16;57.98;99545.38;5036035;28;20180;-55
2022/06/19 06:46:13;;;;;;;8.07;2.60;;;;;;;21.12;57.96;99517.41;5020337;28;20064;-56
2022/06/19 06:49:02;;;;;;;14.80;3.63;;;;;;;21.13;57.66;99511.25;5020729;28;20412;-55
2022/06/19 06:51:46;;;;;;;10.18;2.95;;;;;;;21.08;57.71;99518.47;5020683;28;20087;-56
2022/06/19 06:54:30;;;;;;;9.20;2.28;;;;;;;21.06;57.63;99518.50;5035400;28;20195;-57
2022/06/19 06:57:14;;;;;;;9.57;3.55;;;;;;;21.06;57.59;99539.56;5035523;28;20052;-57
2022/06/19 06:59:58;;;;;;;10.18;2.78;;;;;;;21.06;57.67;99499.22;5035090;28;20049;-56
2022/06/19 07:02:42;;;;;;;9.25;2.97;;;;;;;21.03;57.16;99496.69;5035075;28;20180;-56
2022/06/19 07:05:28;;;;;;;9.82;2.78;;;;;;;21.06;57.21;99470.25;5020127;28;20047;-56
2022/06/19 07:08:12;;;;;;;7.32;2.47;;;;;;;21.05;57.41;99464.09;5035446;28;20052;-55
2022/06/19 07:10:56;;;;;;;7.10;2.63;;;;;;;21.06;57.23;99443.91;5034872;28;20425;-56
2022/06/19 07:13:40;;;;;;;6.75;2.28;;;;;;;21.04;56.96;99437.81;5020309;28;20072;-56
2022/06/19 07:16:24;;;;;;;11.20;3.00;;;;;;;21.06;57.20;99439.47;5035419;28;20187;-55
2022/06/19 07:19:09;;;;;;;7.40;2.85;;;;;;;21.05;57.25;99432.50;5020131;28;20091;-55
2022/06/19 07:21:53;;;;;;;10.10;2.20;;;;;;;21.05;56.95;99456.19;5020405;28;20110;-56
2022/06/19 07:24:37;;;;;;;7.93;2.22;;;;;;;21.06;57.06;99483.41;5020021;28;20473;-56
2022/06/19 07:27:22;;;;;;;9.93;3.00;;;;;;;21.05;56.70;99540.50;5035389;28;20056;-55
2022/06/19 07:30:07;;;;;;;8.27;2.75;;;;;;;20.98;56.44;99555.66;5034457;28;20063;-55
2022/06/19 07:32:51;;;;;;;8.15;1.95;;;;;;;20.99;56.62;99551.25;5034762;28;20048;-57
2022/06/19 07:35:35;;;;;;;10.05;2.67;;;;;;;20.96;56.48;99520.59;5034596;28;20527;-55
2022/06/19 07:38:18;;;;;;;6.68;2.22;;;;;;;20.98;56.70;99497.69;5034541;28;20076;-55
2022/06/19 07:41:02;;;;;;;9.30;2.33;;;;;;;20.99;56.62;99520.50;5034265;28;20080;-55
2022/06/19 07:43:51;;;;;;;11.15;3.03;;;;;;;20.96;56.28;99480.25;5034429;28;20044;-56
2022/06/19 07:50:09;;;;;;;9.70;2.45;;;;;;;21.02;56.57;99474.75;5020013;28;20078;-56
2022/06/19 07:52:44;;;;;;;8.80;2.40;;;;;;;21.04;56.55;99474.69;5034129;28;20044;-56
2022/06/19 07:55:31;;;;;;;7.30;2.53;;;;;;;21.04;56.35;99461.53;5019605;28;20060;-56
2022/06/19 07:58:15;;;;;;;6.72;1.83;;;;;;;21.04;56.30;99453.63;5034420;28;20532;-57
2022/06/19 08:00:59;;;;;;;10.70;2.15;;;;;;;21.04;56.48;99454.47;5019837;28;20504;-57
2022/06/19 08:03:44;;;;;;;6.10;2.00;;;;;;;21.05;56.54;99461.47;5019502;28;20048;-57
2022/06/19 08:06:27;;;;;;;8.85;2.92;;;;;;;21.06;56.52;99444.75;5034448;28;20420;-56
2022/06/19 08:09:12;;;;;;;8.80;2.13;;;;;;;21.05;56.60;99424.59;5034134;28;20053;-56
2022/06/19 08:11:56;;;;;;;7.45;2.60;;;;;;;21.05;56.56;99429.00;5033685;28;20163;-57
2022/06/19 08:14:40;;;;;;;7.00;2.40;;;;;;;21.05;56.52;99434.28;5033804;28;20060;-57
2022/06/19 08:17:23;;;;;;;8.55;2.53;;;;;;;21.06;56.50;99436.00;5033870;28;20128;-57
2022/06/19 08:20:08;;;;;;;6.03;1.90;;;;;;;21.05;56.57;99437.75;5034286;28;20096;-57
2022/06/19 08:22:52;;;;;;;6.47;2.35;;;;;;;21.04;56.55;99425.50;5019267;28;20140;-56
2022/06/19 08:25:37;;;;;;;6.05;2.15;;;;;;;21.02;56.49;99418.56;5033574;28;20088;-57
2022/06/19 08:31:15;;;;;;;5.93;2.23;;;;;;;21.03;56.52;99415.03;5034023;28;20445;-57
2022/06/19 08:33:59;;;;;;;6.25;2.33;;;;;;;21.05;56.53;99434.28;5033782;28;20747;-56
2022/06/19 08:36:43;;;;;;;7.20;2.30;;;;;;;21.05;56.63;99453.56;5019232;28;20096;-55
2022/06/19 08:39:29;;;;;;;6.82;2.50;;;;;;;21.06;56.61;99431.56;5033545;28;20048;-55
2022/06/19 08:42:34;;;;;;;5.45;2.15;;;;;;;21.04;56.56;99440.47;5018838;28;20103;-55
2022/06/19 08:45:30;;;;;;;10.85;2.50;;;;;;;21.03;56.57;99417.66;5018819;28;20131;-56
2022/06/19 08:48:21;;;;;;;6.75;2.28;;;;;;;21.03;56.69;99417.66;5018168;28;20098;-56
2022/06/19 08:51:36;;;;;;;6.15;2.17;;;;;;;21.02;56.76;99456.31;5033551;28;20096;-55
2022/06/19 08:54:47;;;;;;;;;;;;;;;21.01;56.77;99416.88;5033741;28;20040;-56
2022/06/19 08:57:33;;;;;;;9.80;2.15;;;;;;;20.96;56.94;99407.34;5018328;28;20296;-57
2022/06/19 09:00:23;;;;;;;5.38;2.13;;;;;;;20.96;57.17;99362.56;5019089;28;20463;-57
2022/06/19 09:05:36;;;;;;;10.32;2.42;;;;;;;20.92;56.84;99308.31;5018397;28;20481;-57
2022/06/19 09:06:55;;;;;;;8.15;2.60;;;;;;;20.94;57.00;99276.66;5033624;28;20044;-56
2022/06/19 09:10:03;;;;;;;4.25;2.08;;;;;;;20.92;56.85;99246.88;5033449;28;20561;-56
2022/06/19 09:12:56;;;;;;;5.93;2.13;;;;;;;20.90;57.01;99212.72;5018215;28;20084;-57
2022/06/19 09:16:10;;;;;;;7.53;2.28;;;;;;;20.86;56.88;99121.59;5018422;28;20060;-57
2022/06/19 09:19:02;;;;;;;6.05;2.15;;;;;;;20.81;56.94;99098.09;5033078;28;20047;-55
2022/06/19 09:22:14;;;;;;;8.20;2.63;;;;;;;20.78;56.94;99097.38;5018609;28;20167;-57
2022/06/19 09:25:26;;;;;;;5.68;2.15;;;;;;;20.77;57.00;99064.06;5032766;28;20040;-58
2022/06/19 09:28:23;;;;;;;11.40;2.80;;;;;;;20.75;56.84;99144.84;5032844;28;20416;-57
2022/06/19 09:31:11;;;;;;;8.82;2.85;;;;;;;20.73;56.82;99252.81;5018419;28;20464;-57
2022/06/19 09:34:05;;;;;;;8.07;2.95;;;;;;;20.74;56.66;99293.19;5033105;28;20057;-56
2022/06/19 09:36:56;;;;;;;10.27;2.97;;;;;;;20.75;56.56;99337.03;5018582;28;20512;-55
2022/06/19 09:39:50;;;;;;;9.10;2.70;;;;;;;20.77;56.77;99325.56;5018441;28;20070;-57
2022/06/19 09:42:39;;;;;;;9.07;2.60;;;;;;;20.77;56.72;99322.06;5018317;28;20135;-57
2022/06/19 09:45:35;;;;;;;10.90;3.17;;;;;;;20.75;56.77;99329.13;5018307;28;20048;-57
2022/06/19 09:48:39;;;;;;;6.80;2.17;;;;;;;20.72;56.84;99326.63;5018787;28;20103;-56
2022/06/19 09:51:33;;;;;;;;;;;;;;;20.66;56.60;99352.25;5033278;28;20052;-55
2022/06/19 09:54:31;;;;;;;6.82;2.17;;;;;;;20.67;56.64;99359.22;5032940;28;20055;-58
2022/06/19 09:57:31;;;;;;;5.47;2.30;;;;;;;20.66;56.66;99411.94;5018273;28;20049;-56
2022/06/19 10:00:24;;;;;;;6.57;2.47;;;;;;;20.69;56.45;99401.31;5022039;28;20098;-57
2022/06/19 10:03:21;;;;;;;6.65;2.60;;;;;;;20.69;56.54;99401.31;5015574;28;20049;-55
2022/06/19 10:06:20;;;;;;;5.80;1.80;;;;;;;20.68;56.72;99394.31;5017001;28;20053;-56
2022/06/19 10:09:13;;;;;;;8.50;2.67;;;;;;;20.69;56.78;99410.06;5015517;28;20052;-56
2022/06/19 10:12:01;;;;;;;6.95;2.28;;;;;;;20.71;56.70;99443.38;5015406;28;20520;-56
2022/06/19 10:14:49;;;;;;;5.47;2.33;;;;;;;20.71;56.44;99427.56;5016323;28;20061;-56
2022/06/19 10:17:47;;;;;;;7.35;2.30;;;;;;;20.67;56.25;99406.59;5015384;28;20092;-57
2022/06/19 10:20:43;;;;;;;19.13;2.83;;;;;;;20.69;56.61;99382.88;5016362;28;20476;-57
2022/06/19 10:23:35;;;;;;;6.57;2.10;;;;;;;20.70;56.43;99395.13;5015564;28;20100;-57
2022/06/19 10:26:34;;;;;;;10.70;2.38;;;;;;;20.72;56.75;99363.47;5016258;28;20049;-57
2022/06/19 10:29:23;;;;;;;8.23;2.63;;;;;;;20.74;56.71;99337.94;5016213;28;20053;-55
2022/06/19 10:32:44;;;;;;;7.80;2.13;;;;;;;20.74;56.62;99348.47;5016546;28;20069;-56
2022/06/19 10:35:43;;;;;;;9.65;2.10;;;;;;;20.74;56.61;99346.69;5015571;28;20103;-57
2022/06/19 10:39:12;;;;;;;8.27;2.20;;;;;;;20.71;56.55;99333.63;5016177;28;20124;-57
2022/06/19 10:42:17;;;;;;;6.55;2.15;;;;;;;20.72;56.43;99326.63;5010396;28;20452;-57
2022/06/19 10:45:41;;;;;;;6.75;2.42;;;;;;;20.72;56.61;99363.47;5015876;28;20425;-56
2022/06/19 10:48:40;;;;;;;6.75;2.38;;;;;;;20.74;56.64;99359.84;5015289;28;20057;-57
2022/06/19 10:51:35;;;;;;;4.68;2.15;;;;;;;20.75;56.77;99347.56;5015309;28;20080;-57
2022/06/19 10:54:37;;;;;;;5.72;2.35;;;;;;;20.73;56.25;99355.50;5014989;28;20049;-56
2022/06/19 10:57:30;;;;;;;8.43;2.22;;;;;;;20.72;56.69;99374.84;5015119;28;20134;-57
2022/06/19 11:00:15;;;;;;;7.68;2.60;;;;;;;20.73;56.70;99389.72;5015466;28;20088;-56
2022/06/19 11:06:54;;;;;;;9.50;2.45;;;;;;;20.70;56.50;99410.94;5015849;28;20080;-56
2022/06/19 11:09:46;;;;;;;9.13;2.80;;;;;;;20.69;56.45;99399.53;5014541;28;20077;-57
2022/06/19 11:12:42;;;;;;;6.30;2.60;;;;;;;20.72;56.63;99424.03;5014397;28;20413;-55
2022/06/19 11:15:36;;;;;;;9.15;2.33;;;;;;;20.74;56.51;99424.81;5015336;28;20111;-56
2022/06/19 11:18:24;;;;;;;8.55;2.40;;;;;;;20.73;56.43;99409.94;5014698;28;20052;-55
2022/06/19 11:21:17;;;;;;;8.23;2.80;;;;;;;20.71;56.33;99382.81;5014463;28;20048;-56
2022/06/19 11:24:05;;;;;;;4.10;2.15;;;;;;;20.71;56.39;99364.38;5014074;28;20049;-55
2022/06/19 11:26:49;;;;;;;8.60;2.42;;;;;;;20.72;56.28;99351.16;5014925;28;20044;-57
2022/06/19 11:29:33;;;;;;;9.00;2.75;;;;;;;20.73;56.34;99371.28;5015337;28;20056;-55
2022/06/19 11:32:22;;;;;;;5.57;2.40;;;;;;;20.73;56.38;99396.78;5014145;28;20049;-57
2022/06/19 11:35:08;;;;;;;10.85;2.45;;;;;;;20.75;56.22;99419.53;5014440;28;20053;-56
2022/06/19 11:37:56;;;;;;;7.03;2.58;;;;;;;20.75;56.19;99413.38;5014056;28;20463;-57
2022/06/19 11:40:45;;;;;;;6.00;2.72;;;;;;;20.77;56.44;99445.81;5014418;28;20109;-57
2022/06/19 11:43:32;;;;;;;9.43;2.60;;;;;;;20.74;56.04;99444.09;5014730;28;20048;-57
2022/06/19 11:46:26;;;;;;;6.97;2.50;;;;;;;20.76;56.15;99449.38;5014090;28;20449;-57
2022/06/19 11:49:37;;;;;;;6.90;2.83;;;;;;;20.73;56.18;99454.69;5014069;28;20131;-57
2022/06/19 11:52:25;;;;;;;7.50;3.08;;;;;;;20.72;56.12;99460.88;5013808;28;20083;-57
2022/06/19 11:55:19;;;;;;;7.57;2.38;;;;;;;20.72;56.28;99453.81;5013676;28;20124;-57
2022/06/19 11:58:22;;;;;;;9.30;2.80;;;;;;;20.66;56.08;99467.22;5013767;28;20044;-56
2022/06/19 12:01:09;;;;;;;7.60;2.88;;;;;;;20.66;56.25;99486.50;5014348;28;20420;-55
2022/06/19 12:03:57;;;;;;;11.00;2.65;;;;;;;20.69;56.11;99496.09;5013388;28;20160;-56
2022/06/19 12:06:49;;;;;;;7.15;2.80;;;;;;;20.68;56.42;99516.28;5013515;28;20053;-56
2022/06/19 12:09:42;;;;;;;7.78;2.53;;;;;;;20.68;56.08;99539.97;5014470;28;20129;-57
2022/06/19 12:12:29;;;;;;;12.82;2.55;;;;;;;20.68;56.39;99553.13;5013211;28;20097;-55
2022/06/19 12:15:13;;;;;;;7.78;2.90;;;;;;;20.66;56.21;99560.22;5014723;28;20052;-57
2022/06/19 12:18:20;;;;;;;6.68;2.75;;;;;;;20.64;56.15;99582.25;5014375;28;20084;-57
2022/06/19 12:21:18;;;;;;;11.07;2.50;;;;;;;20.62;56.27;99618.28;5012995;28;20053;-57
2022/06/19 12:24:07;;;;;;;8.70;2.50;;;;;;;20.64;56.03;99662.06;5013240;28;20417;-57
2022/06/19 12:26:56;;;;;;;9.00;3.03;;;;;;;20.63;55.99;99684.03;5013469;28;20515;-58
2022/06/19 12:29:54;;;;;;;12.77;2.50;;;;;;;20.65;56.20;99679.59;5014269;28;20103;-59
2022/06/19 12:32:43;;;;;;;14.70;2.83;;;;;;;20.69;56.09;99670.69;5014085;28;20052;-59
2022/06/19 12:35:45;;;;;;;6.93;2.40;;;;;;;20.70;55.85;99658.41;5012850;28;20081;-58
2022/06/19 12:38:32;;;;;;;7.00;2.65;;;;;;;20.72;55.84;99634.66;5012978;28;20044;-59
2022/06/19 12:41:53;;;;;;;11.02;2.80;;;;;;;20.68;55.71;99634.75;5012958;28;20088;-58
2022/06/19 12:44:57;;;;;;;10.45;2.85;;;;;;;20.72;55.75;99634.66;5012758;28;20465;-57
2022/06/19 12:47:48;;;;;;;6.63;2.90;;;;;;;20.72;55.68;99611.78;5013302;28;20445;-57
2022/06/19 12:51:04;;;;;;;15.10;3.17;;;;;;;20.67;55.59;99611.94;5013639;28;20049;-58
2022/06/19 12:54:23;;;;;;;10.10;3.13;;;;;;;20.68;55.64;99634.75;4980166;28;20045;-58
2022/06/19 12:57:33;;;;;;;16.02;4.35;;;;;;;20.66;55.50;99622.53;5013313;28;20069;-55
2022/06/19 13:00:17;;;;;;;12.70;3.95;;;;;;;20.66;55.87;99628.66;5013648;28;20193;-55
2022/06/19 13:03:31;;;;;;;7.95;2.85;;;;;;;20.68;55.92;99624.22;5012915;28;20418;-57
2022/06/19 13:06:24;;;;;;;8.20;2.58;;;;;;;20.67;55.81;99625.13;5013629;28;20092;-56
2022/06/19 13:09:43;;;;;;;8.73;2.78;;;;;;;20.72;55.73;99618.84;5013688;28;20104;-56
2022/06/19 13:12:36;;;;;;;7.28;3.45;;;;;;;20.71;55.97;99609.22;5012581;28;20472;-56
2022/06/19 13:15:43;;;;;;;9.75;4.25;;;;;;;20.70;56.00;99611.00;5013622;28;20049;-56
2022/06/19 13:18:56;;;;;;;9.25;3.20;;;;;;;20.70;55.80;99629.44;5013929;28;20112;-55
2022/06/19 13:22:03;;;;;;;9.00;3.20;;;;;;;20.73;55.83;99637.22;5012581;28;20517;-56
2022/06/19 13:24:54;;;;;;;8.45;3.13;;;;;;;20.73;55.70;99642.47;5012714;28;20061;-56
2022/06/19 13:27:51;;;;;;;7.78;2.92;;;;;;;20.72;56.09;99645.19;5013743;28;20068;-56
2022/06/19 13:30:44;;;;;;;11.23;4.32;;;;;;;20.73;55.87;99650.38;5013390;28;20053;-55